Time;durP1;ratioP1;P1;durP2;ratioP2;P2;SDS_P1;SDS_P2;PMS_P1;PMS_P2;Temp;Humidity;BMP_temperature;BMP_pressure;BME280_temperature;BME280_humidity;BME280_pressure;Samples;Min_cycle;Max_cycle;Signal;HPM_P1;HPM_P2
2023/12/18 00:00:59;;;;;;;44.80;17.10;;;;;;;-128.00;-1.00;-1.00;100317;1283;1003435;-30
2023/12/18 00:03:25;;;;;;;42.20;15.90;;;;;;;-128.00;-1.00;-1.00;100312;1288;1003387;-30
2023/12/18 00:05:50;;;;;;;53.30;18.40;;;;;;;-128.00;-1.00;-1.00;100380;1283;1056147;-32
2023/12/18 00:08:16;;;;;;;44.40;18.00;;;;;;;-128.00;-1.00;-1.00;100223;1283;1004980;-31
2023/12/18 00:10:42;;;;;;;44.30;18.30;;;;;;;-128.00;-1.00;-1.00;100321;1288;1003881;-32
2023/12/18 00:13:08;;;;;;;41.10;15.90;;;;;;;-128.00;-1.00;-1.00;100263;1289;1046577;-32
2023/12/18 00:15:34;;;;;;;47.80;17.90;;;;;;;-128.00;-1.00;-1.00;100298;1283;1003780;-30
2023/12/18 00:18:00;;;;;;;39.20;17.30;;;;;;;-128.00;-1.00;-1.00;100501;1289;1003858;-29
2023/12/18 00:20:25;;;;;;;;;;;;;;;-128.00;-1.00;-1.00;100367;1287;1012830;-30
2023/12/18 00:22:51;;;;;;;42.30;16.70;;;;;;;-128.00;-1.00;-1.00;100412;1287;1003321;-29
2023/12/18 00:25:17;;;;;;;;;;;;;;;-128.00;-1.00;-1.00;100381;1289;1003201;-30
2023/12/18 00:27:43;;;;;;;39.50;16.10;;;;;;;-128.00;-1.00;-1.00;100291;1286;1056605;-30
2023/12/18 00:30:09;;;;;;;36.30;15.30;;;;;;;-128.00;-1.00;-1.00;100366;1286;1004718;-31
2023/12/18 00:32:35;;;;;;;43.60;16.20;;;;;;;-128.00;-1.00;-1.00;100372;1286;1002872;-32
2023/12/18 00:35:01;;;;;;;49.30;16.60;;;;;;;-128.00;-1.00;-1.00;100325;1285;1003672;-32
2023/12/18 00:37:27;;;;;;;39.30;16.70;;;;;;;-128.00;-1.00;-1.00;100244;1287;1059733;-31
2023/12/18 00:39:53;;;;;;;36.00;14.70;;;;;;;-128.00;-1.00;-1.00;100133;1282;1003380;-31
2023/12/18 00:42:18;;;;;;;36.20;14.20;;;;;;;-128.00;-1.00;-1.00;100256;1284;1004641;-31
2023/12/18 00:44:44;;;;;;;40.50;14.50;;;;;;;-128.00;-1.00;-1.00;100477;1289;1038721;-31
2023/12/18 00:47:10;;;;;;;40.40;15.70;;;;;;;-128.00;-1.00;-1.00;100438;1282;1005114;-32
2023/12/18 00:49:36;;;;;;;37.00;15.20;;;;;;;-128.00;-1.00;-1.00;100410;1282;1002914;-32
2023/12/18 00:52:02;;;;;;;34.70;14.80;;;;;;;-128.00;-1.00;-1.00;100396;1287;1058346;-32
2023/12/18 00:54:28;;;;;;;36.80;14.10;;;;;;;-128.00;-1.00;-1.00;100389;1283;1003867;-32
2023/12/18 00:56:54;;;;;;;33.10;13.40;;;;;;;-128.00;-1.00;-1.00;100300;1285;1004349;-31
2023/12/18 00:59:20;;;;;;;31.60;13.60;;;;;;;-128.00;-1.00;-1.00;100339;1282;1002904;-30
2023/12/18 01:01:46;;;;;;;36.90;13.40;;;;;;;-128.00;-1.00;-1.00;100257;1289;1056463;-30
2023/12/18 01:04:11;;;;;;;36.30;13.80;;;;;;;-128.00;-1.00;-1.00;100051;1283;1003231;-30
2023/12/18 01:06:38;;;;;;;31.80;13.50;;;;;;;-128.00;-1.00;-1.00;100393;1286;1003132;-31
2023/12/18 01:09:04;;;;;;;32.80;13.70;;;;;;;-128.00;-1.00;-1.00;100461;1289;1002288;-30
2023/12/18 01:11:30;;;;;;;33.40;13.90;;;;;;;-128.00;-1.00;-1.00;100322;1283;1002929;-31
2023/12/18 01:13:55;;;;;;;31.60;13.20;;;;;;;-128.00;-1.00;-1.00;100245;1282;1056676;-30
2023/12/18 01:16:21;;;;;;;;;;;;;;;-128.00;-1.00;-1.00;100299;1288;1003575;-32
2023/12/18 01:18:48;;;;;;;31.70;12.50;;;;;;;-128.00;-1.00;-1.00;100321;1283;1003228;-31
2023/12/18 01:21:14;;;;;;;31.60;13.20;;;;;;;-128.00;-1.00;-1.00;100297;1296;1047040;-32
2023/12/18 01:23:40;;;;;;;31.60;12.90;;;;;;;-128.00;-1.00;-1.00;100489;1287;1004390;-31
2023/12/18 01:26:06;;;;;;;26.80;12.00;;;;;;;-128.00;-1.00;-1.00;100396;1286;1003369;-32
2023/12/18 01:28:32;;;;;;;28.10;11.20;;;;;;;-128.00;-1.00;-1.00;100230;1283;1004175;-33
2023/12/18 01:30:58;;;;;;;30.60;12.10;;;;;;;-128.00;-1.00;-1.00;100294;1286;1039375;-37
2023/12/18 01:33:23;;;;;;;29.20;12.90;;;;;;;-128.00;-1.00;-1.00;100266;1286;1003157;-30
2023/12/18 01:35:49;;;;;;;25.90;11.90;;;;;;;-128.00;-1.00;-1.00;100285;1283;1003406;-32
2023/12/18 01:38:15;;;;;;;27.10;11.70;;;;;;;-128.00;-1.00;-1.00;100317;1283;1059502;-30
2023/12/18 01:40:41;;;;;;;26.90;11.00;;;;;;;-128.00;-1.00;-1.00;100352;1284;1004258;-31
2023/12/18 01:43:25;;;;;;;35.50;11.60;;;;;;;-128.00;-1.00;-1.00;100395;1283;1002530;-33
2023/12/18 01:46:00;;;;;;;23.80;10.60;;;;;;;-128.00;-1.00;-1.00;100434;1283;1059379;-31
2023/12/18 01:48:26;;;;;;;24.60;9.90;;;;;;;-128.00;-1.00;-1.00;100391;1283;1055065;-30
2023/12/18 01:50:55;;;;;;;26.80;11.60;;;;;;;-128.00;-1.00;-1.00;100227;1286;1004878;-30
2023/12/18 02:33:13;;;;;;;27.50;11.90;;;;;;;-102.19;19.20;20124.98;100409;1288;1600122;-31
2023/12/18 02:35:39;;;;;;;;;;;;;;;-128.00;-1.00;-1.00;99974;1289;1005148;-32
2023/12/18 02:38:05;;;;;;;23.70;9.70;;;;;;;-128.00;-1.00;-1.00;100138;1286;1004843;-32
2023/12/18 02:40:30;;;;;;;21.20;9.20;;;;;;;-128.00;-1.00;-1.00;99955;1283;1059664;-32
2023/12/18 02:42:56;;;;;;;29.20;10.00;;;;;;;-128.00;-1.00;-1.00;100142;1282;1004584;-32
2023/12/18 02:45:22;;;;;;;21.40;9.60;;;;;;;-128.00;-1.00;-1.00;100029;1283;1004711;-33
2023/12/18 02:47:48;;;;;;;;;;;;;;;-128.00;-1.00;-1.00;99928;1282;1046547;-32
2023/12/18 02:50:14;;;;;;;22.60;8.70;;;;;;;-128.00;-1.00;-1.00;100065;1288;1004513;-35
2023/12/18 02:52:40;;;;;;;21.10;9.00;;;;;;;-128.00;-1.00;-1.00;100179;1283;1004874;-31
2023/12/18 02:55:07;;;;;;;19.70;8.90;;;;;;;-128.00;-1.00;-1.00;100186;1285;1005101;-33
2023/12/18 02:57:34;;;;;;;25.00;9.50;;;;;;;-128.00;-1.00;-1.00;99987;1287;1014740;-32
2023/12/18 03:00:00;;;;;;;20.90;9.20;;;;;;;-128.00;-1.00;-1.00;99976;1287;1004371;-32
2023/12/18 03:02:26;;;;;;;17.00;8.50;;;;;;;-128.00;-1.00;-1.00;100064;1288;1004858;-33
2023/12/18 03:04:51;;;;;;;21.10;8.90;;;;;;;-128.00;-1.00;-1.00;100103;1283;1004915;-33
2023/12/18 03:07:17;;;;;;;18.30;8.00;;;;;;;-128.00;-1.00;-1.00;100019;1287;1061129;-34
2023/12/18 03:09:43;;;;;;;23.70;9.30;;;;;;;-128.00;-1.00;-1.00;100030;1286;1004604;-32
2023/12/18 03:12:09;;;;;;;;;;;;;;;-128.00;-1.00;-1.00;100065;1287;1004626;-33
2023/12/18 03:14:35;;;;;;;21.60;8.30;;;;;;;-128.00;-1.00;-1.00;100009;1288;1062079;-32
2023/12/18 03:17:00;;;;;;;21.80;9.00;;;;;;;-128.00;-1.00;-1.00;100075;1285;1004464;-31
2023/12/18 03:19:26;;;;;;;14.10;7.00;;;;;;;-128.00;-1.00;-1.00;100008;1288;1004776;-31
2023/12/18 03:21:52;;;;;;;37.10;16.80;;;;;;;-128.00;-1.00;-1.00;100008;1288;1046729;-32
2023/12/18 03:24:18;;;;;;;19.80;6.90;;;;;;;-128.00;-1.00;-1.00;100050;1283;1004345;-31
2023/12/18 03:26:44;;;;;;;16.00;7.50;;;;;;;-128.00;-1.00;-1.00;100049;1283;1003934;-31
2023/12/18 03:29:10;;;;;;;14.50;6.80;;;;;;;-128.00;-1.00;-1.00;100035;1286;1061010;-32
2023/12/18 03:31:36;;;;;;;12.20;5.90;;;;;;;-128.00;-1.00;-1.00;100056;1283;1004339;-33
2023/12/18 03:34:02;;;;;;;12.50;5.50;;;;;;;-128.00;-1.00;-1.00;100030;1287;1004545;-33
2023/12/18 03:36:28;;;;;;;12.60;5.90;;;;;;;-128.00;-1.00;-1.00;100070;1283;1004310;-32
2023/12/18 03:38:53;;;;;;;12.40;6.20;;;;;;;-128.00;-1.00;-1.00;99966;1283;1056918;-33
2023/12/18 03:41:19;;;;;;;15.00;6.80;;;;;;;-128.00;-1.00;-1.00;99991;1286;1004439;-30
2023/12/18 03:43:46;;;;;;;22.90;9.40;;;;;;;-128.00;-1.00;-1.00;99966;1286;1004494;-31
2023/12/18 03:46:11;;;;;;;14.50;5.60;;;;;;;-128.00;-1.00;-1.00;100030;1288;1004677;-30
2023/12/18 03:48:37;;;;;;;17.80;8.40;;;;;;;-128.00;-1.00;-1.00;100075;1286;1061468;-30
2023/12/18 03:51:03;;;;;;;13.50;5.50;;;;;;;-128.00;-1.00;-1.00;100052;1286;1004184;-30
2023/12/18 03:53:29;;;;;;;18.50;9.20;;;;;;;-128.00;-1.00;-1.00;100015;1288;1004730;-32
2023/12/18 03:55:55;;;;;;;16.40;8.00;;;;;;;-128.00;-1.00;-1.00;99960;1288;1047128;-31
2023/12/18 03:58:21;;;;;;;10.40;6.00;;;;;;;-128.00;-1.00;-1.00;100012;1285;1004693;-31
2023/12/18 04:00:47;;;;;;;17.00;6.70;;;;;;;-128.00;-1.00;-1.00;100025;1287;1004540;-32
2023/12/18 04:03:13;;;;;;;13.80;7.10;;;;;;;-128.00;-1.00;-1.00;100074;1285;1060586;-32
2023/12/18 04:05:39;;;;;;;12.00;6.30;;;;;;;-128.00;-1.00;-1.00;100032;1283;1004838;-31
2023/12/18 04:08:05;;;;;;;12.90;6.00;;;;;;;-128.00;-1.00;-1.00;100087;1288;1004940;-35
2023/12/18 04:10:31;;;;;;;10.90;5.90;;;;;;;-128.00;-1.00;-1.00;100070;1285;1061886;-30
2023/12/18 04:12:56;;;;;;;15.00;6.30;;;;;;;-128.00;-1.00;-1.00;100063;1283;1004263;-31
2023/12/18 04:15:22;;;;;;;12.70;6.50;;;;;;;-128.00;-1.00;-1.00;100097;1286;1004703;-32
2023/12/18 04:17:48;;;;;;;12.30;5.90;;;;;;;-128.00;-1.00;-1.00;100052;1288;1046759;-32
2023/12/18 04:20:15;;;;;;;12.80;5.90;;;;;;;-128.00;-1.00;-1.00;100005;1284;1004521;-31
2023/12/18 04:22:41;;;;;;;12.20;6.60;;;;;;;-128.00;-1.00;-1.00;99984;1288;1004994;-33
2023/12/18 04:25:07;;;;;;;9.80;5.00;;;;;;;-128.00;-1.00;-1.00;100035;1288;1003932;-31
2023/12/18 04:27:33;;;;;;;10.30;5.40;;;;;;;-128.00;-1.00;-1.00;99994;1285;1004607;-31
2023/12/18 04:29:59;;;;;;;14.60;6.20;;;;;;;-128.00;-1.00;-1.00;100040;1287;1046439;-31
2023/12/18 04:32:25;;;;;;;13.10;6.10;;;;;;;-128.00;-1.00;-1.00;99996;1287;1003549;-32
2023/12/18 04:34:51;;;;;;;12.50;5.70;;;;;;;-128.00;-1.00;-1.00;100029;1283;1004522;-32
2023/12/18 04:37:17;;;;;;;9.10;4.90;;;;;;;-128.00;-1.00;-1.00;100102;1285;1003883;-33
2023/12/18 04:39:43;;;;;;;9.20;4.40;;;;;;;-128.00;-1.00;-1.00;99952;1285;1014787;-34
2023/12/18 04:42:09;;;;;;;13.60;5.30;;;;;;;-128.00;-1.00;-1.00;100001;1285;1004795;-33
2023/12/18 04:44:35;;;;;;;17.00;4.90;;;;;;;-128.00;-1.00;-1.00;100016;1285;1005036;-34
2023/12/18 04:47:01;;;;;;;15.90;5.90;;;;;;;-128.00;-1.00;-1.00;99976;1286;1057248;-32
2023/12/18 04:49:27;;;;;;;10.40;5.10;;;;;;;-128.00;-1.00;-1.00;99993;1285;1004946;-30
2023/12/18 04:51:52;;;;;;;10.20;4.80;;;;;;;-128.00;-1.00;-1.00;99970;1285;1004882;-31
2023/12/18 04:54:18;;;;;;;8.80;4.40;;;;;;;-128.00;-1.00;-1.00;99993;1286;1048217;-29
2023/12/18 04:56:45;;;;;;;8.40;4.00;;;;;;;-128.00;-1.00;-1.00;99962;1288;1003939;-30
2023/12/18 04:59:11;;;;;;;8.80;4.20;;;;;;;-128.00;-1.00;-1.00;100053;1285;1003580;-30
2023/12/18 05:01:37;;;;;;;8.70;4.00;;;;;;;-128.00;-1.00;-1.00;99933;1285;1003848;-31
2023/12/18 05:04:03;;;;;;;8.90;3.80;;;;;;;-128.00;-1.00;-1.00;100024;1284;1004413;-37
2023/12/18 05:06:29;;;;;;;10.80;3.90;;;;;;;-128.00;-1.00;-1.00;100062;1283;1047338;-32
2023/12/18 05:08:55;;;;;;;8.40;3.70;;;;;;;-128.00;-1.00;-1.00;99985;1283;1004660;-32
2023/12/18 05:11:23;;;;;;;8.00;3.80;;;;;;;-128.00;-1.00;-1.00;97238;1285;1004733;-31
2023/12/18 05:13:49;;;;;;;8.90;3.80;;;;;;;-128.00;-1.00;-1.00;97175;1283;1012121;-32
2023/12/18 05:16:15;;;;;;;;;;;;;;;-128.00;-1.00;-1.00;99347;1286;1003417;-32
2023/12/18 05:18:41;;;;;;;10.10;3.60;;;;;;;-128.00;-1.00;-1.00;100028;1283;1003878;-31
2023/12/18 05:21:07;;;;;;;11.60;4.50;;;;;;;-128.00;-1.00;-1.00;100017;1288;1005572;-32
2023/12/18 05:23:33;;;;;;;7.20;3.20;;;;;;;-128.00;-1.00;-1.00;99414;1287;1058171;-33
2023/12/18 05:25:59;;;;;;;7.90;3.30;;;;;;;-128.00;-1.00;-1.00;100047;1284;1004961;-32
2023/12/18 05:28:25;;;;;;;5.60;3.50;;;;;;;-128.00;-1.00;-1.00;99974;1285;1004541;-32
2023/12/18 05:30:51;;;;;;;5.60;2.80;;;;;;;-128.00;-1.00;-1.00;100052;1288;1005094;-32
2023/12/18 05:33:17;;;;;;;8.90;3.80;;;;;;;-128.00;-1.00;-1.00;100015;1283;1004485;-30
2023/12/18 05:35:44;;;;;;;8.60;3.60;;;;;;;-128.00;-1.00;-1.00;100001;1288;1004696;-30
2023/12/18 05:38:09;;;;;;;7.70;3.60;;;;;;;-128.00;-1.00;-1.00;100017;1283;1004233;-30
2023/12/18 05:40:35;;;;;;;7.00;3.60;;;;;;;-128.00;-1.00;-1.00;100026;1288;1045296;-30
2023/12/18 05:43:01;;;;;;;7.80;3.30;;;;;;;-128.00;-1.00;-1.00;100087;1283;1004734;-31
2023/12/18 05:45:27;;;;;;;7.20;2.90;;;;;;;-128.00;-1.00;-1.00;100050;1286;1004562;-32
2023/12/18 05:47:53;;;;;;;7.70;3.90;;;;;;;-128.00;-1.00;-1.00;100118;1284;1004354;-30
2023/12/18 05:50:19;;;;;;;5.70;3.30;;;;;;;-128.00;-1.00;-1.00;100031;1285;1014507;-31
2023/12/18 05:52:45;;;;;;;8.00;3.60;;;;;;;-128.00;-1.00;-1.00;99995;1283;1005016;-31
2023/12/18 05:55:11;;;;;;;7.60;2.90;;;;;;;-128.00;-1.00;-1.00;100034;1285;1004605;-35
2023/12/18 05:57:37;;;;;;;6.40;3.30;;;;;;;-128.00;-1.00;-1.00;100069;1288;1056450;-30
2023/12/18 06:00:04;;;;;;;9.50;3.70;;;;;;;-128.00;-1.00;-1.00;99951;1286;1004416;-30
2023/12/18 06:02:31;;;;;;;4.80;2.90;;;;;;;-128.00;-1.00;-1.00;99891;1284;1003856;-30
2023/12/18 06:04:56;;;;;;;6.50;3.20;;;;;;;-128.00;-1.00;-1.00;100001;1285;1004320;-30
2023/12/18 06:07:22;;;;;;;7.20;3.20;;;;;;;-128.00;-1.00;-1.00;100036;1283;1003873;-34
2023/12/18 06:09:48;;;;;;;5.80;3.70;;;;;;;-128.00;-1.00;-1.00;99977;1288;1004768;-32
2023/12/18 06:12:14;;;;;;;7.30;3.60;;;;;;;-128.00;-1.00;-1.00;100002;1288;1058945;-31
2023/12/18 06:14:40;;;;;;;6.20;3.70;;;;;;;-128.00;-1.00;-1.00;100098;1285;1004235;-31
2023/12/18 06:17:06;;;;;;;8.60;4.10;;;;;;;-128.00;-1.00;-1.00;100063;1286;1004469;-31
2023/12/18 06:19:34;;;;;;;8.30;3.50;;;;;;;-128.00;-1.00;-1.00;100001;1283;1059974;-30
2023/12/18 06:22:01;;;;;;;7.00;3.70;;;;;;;-128.00;-1.00;-1.00;100011;1283;1003978;-32
2023/12/18 06:24:27;;;;;;;7.30;3.20;;;;;;;-128.00;-1.00;-1.00;99959;1287;1004169;-31
2023/12/18 06:26:53;;;;;;;5.70;2.90;;;;;;;-128.00;-1.00;-1.00;99995;1283;1004981;-31
2023/12/18 06:29:19;;;;;;;;;;;;;;;-128.00;-1.00;-1.00;100015;1288;1004793;-30
2023/12/18 06:31:45;;;;;;;7.20;3.90;;;;;;;-128.00;-1.00;-1.00;100081;1283;1004530;-30
2023/12/18 06:34:11;;;;;;;8.70;3.90;;;;;;;-128.00;-1.00;-1.00;100016;1283;1056448;-34
2023/12/18 06:36:37;;;;;;;5.80;2.70;;;;;;;-128.00;-1.00;-1.00;100007;1283;1004446;-32
2023/12/18 06:39:03;;;;;;;7.80;3.70;;;;;;;-128.00;-1.00;-1.00;100095;1283;1004318;-30
2023/12/18 06:41:29;;;;;;;6.50;3.70;;;;;;;-128.00;-1.00;-1.00;99993;1286;1004680;-29
2023/12/18 06:43:55;;;;;;;6.40;3.50;;;;;;;-128.00;-1.00;-1.00;100074;1286;1004151;-31
2023/12/18 06:46:21;;;;;;;10.60;4.50;;;;;;;-128.00;-1.00;-1.00;99906;1285;1058169;-31
2023/12/18 06:48:47;;;;;;;7.60;4.00;;;;;;;-128.00;-1.00;-1.00;100038;1284;1004878;-30
2023/12/18 06:51:12;;;;;;;10.90;3.90;;;;;;;-128.00;-1.00;-1.00;100084;1283;1004503;-32
2023/12/18 06:53:39;;;;;;;6.70;3.50;;;;;;;-128.00;-1.00;-1.00;100076;1283;1004233;-29
2023/12/18 06:56:05;;;;;;;7.10;3.80;;;;;;;-128.00;-1.00;-1.00;99954;1285;1060474;-30
2023/12/18 06:58:30;;;;;;;;;;;;;;;-128.00;-1.00;-1.00;100054;1285;1004545;-31
2023/12/18 07:00:56;;;;;;;8.10;3.60;;;;;;;-128.00;-1.00;-1.00;100014;1283;1004468;-33
2023/12/18 07:03:22;;;;;;;7.60;3.30;;;;;;;-128.00;-1.00;-1.00;99984;1283;1045163;-32
2023/12/18 07:05:48;;;;;;;8.30;3.40;;;;;;;-128.00;-1.00;-1.00;99995;1287;1003425;-32
2023/12/18 07:08:14;;;;;;;6.20;3.80;;;;;;;-128.00;-1.00;-1.00;100022;1288;1004402;-30
2023/12/18 07:10:40;;;;;;;7.40;2.80;;;;;;;-128.00;-1.00;-1.00;100083;1285;1004147;-32
2023/12/18 07:13:05;;;;;;;8.30;4.20;;;;;;;-128.00;-1.00;-1.00;100059;1284;1015166;-32
2023/12/18 07:15:31;;;;;;;8.60;3.60;;;;;;;-128.00;-1.00;-1.00;99992;1283;1004679;-30
2023/12/18 07:17:58;;;;;;;6.00;3.10;;;;;;;-128.00;-1.00;-1.00;100015;1283;1004465;-32
2023/12/18 07:20:24;;;;;;;6.90;3.80;;;;;;;-128.00;-1.00;-1.00;100053;1283;1056738;-29
2023/12/18 07:22:50;;;;;;;6.80;3.40;;;;;;;-128.00;-1.00;-1.00;100135;1283;1004505;-36
2023/12/18 07:25:16;;;;;;;5.50;3.10;;;;;;;-128.00;-1.00;-1.00;100046;1285;1004824;-30
2023/12/18 07:27:44;;;;;;;4.40;2.60;;;;;;;-128.00;-1.00;-1.00;100025;1287;1003849;-32
2023/12/18 07:30:10;;;;;;;5.90;3.00;;;;;;;-128.00;-1.00;-1.00;100022;1283;1061077;-32
2023/12/18 07:32:36;;;;;;;29.10;6.10;;;;;;;-128.00;-1.00;-1.00;100009;1283;1004167;-31
2023/12/18 07:35:02;;;;;;;17.90;4.80;;;;;;;-128.00;-1.00;-1.00;99884;1285;1003856;-32
2023/12/18 07:37:28;;;;;;;;;;;;;;;-128.00;-1.00;-1.00;100023;1283;1004592;-32
2023/12/18 07:39:55;;;;;;;11.70;4.60;;;;;;;-128.00;-1.00;-1.00;99999;1283;1046996;-31
2023/12/18 07:42:21;;;;;;;6.90;3.40;;;;;;;-128.00;-1.00;-1.00;100042;1283;1004728;-32
2023/12/18 07:44:47;;;;;;;6.30;3.60;;;;;;;-128.00;-1.00;-1.00;100000;1284;1004537;-31
2023/12/18 07:47:14;;;;;;;5.40;3.00;;;;;;;-128.00;-1.00;-1.00;99963;1285;1004616;-32
2023/12/18 07:49:40;;;;;;;4.70;2.60;;;;;;;-128.00;-1.00;-1.00;99992;1283;1005258;-33
2023/12/18 07:52:05;;;;;;;7.60;2.60;;;;;;;-128.00;-1.00;-1.00;100031;1283;1004197;-32
2023/12/18 07:54:31;;;;;;;5.50;2.50;;;;;;;-128.00;-1.00;-1.00;100058;1283;1004810;-32
2023/12/18 07:56:57;;;;;;;7.70;3.30;;;;;;;-128.00;-1.00;-1.00;99995;1286;1056834;-31
2023/12/18 07:59:23;;;;;;;5.20;2.30;;;;;;;-128.00;-1.00;-1.00;100075;1285;1004723;-32
2023/12/18 08:01:49;;;;;;;6.00;2.70;;;;;;;-128.00;-1.00;-1.00;96483;1285;2003036;-32
2023/12/18 08:04:15;;;;;;;6.90;3.10;;;;;;;-128.00;-1.00;-1.00;100099;1285;1047020;-35
2023/12/18 08:06:40;;;;;;;4.50;1.90;;;;;;;-128.00;-1.00;-1.00;98072;1283;1004526;-33
2023/12/18 08:09:07;;;;;;;4.60;2.20;;;;;;;-128.00;-1.00;-1.00;100154;1285;1003564;-32
2023/12/18 08:11:33;;;;;;;;;;;;;;;-128.00;-1.00;-1.00;100099;1283;1013244;-32
2023/12/18 08:13:59;;;;;;;6.00;2.70;;;;;;;-128.00;-1.00;-1.00;99979;1287;1004682;-32
2023/12/18 08:16:25;;;;;;;4.90;2.40;;;;;;;-128.00;-1.00;-1.00;100037;1288;1004424;-35
2023/12/18 08:18:50;;;;;;;7.60;2.20;;;;;;;-128.00;-1.00;-1.00;100094;1285;1004622;-33
2023/12/18 08:21:16;;;;;;;4.50;2.20;;;;;;;-128.00;-1.00;-1.00;99995;1285;1059616;-33
2023/12/18 08:23:42;;;;;;;3.80;2.00;;;;;;;-128.00;-1.00;-1.00;99982;1285;1004847;-33
2023/12/18 08:26:11;;;;;;;5.00;2.30;;;;;;;-128.00;-1.00;-1.00;99953;1288;1005241;-32
2023/12/18 08:28:41;;;;;;;4.20;2.10;;;;;;;-128.00;-1.00;-1.00;100001;1285;1060378;-33
2023/12/18 08:31:07;;;;;;;5.30;2.10;;;;;;;-128.00;-1.00;-1.00;100084;1283;1056958;-32
2023/12/18 08:33:33;;;;;;;3.70;2.00;;;;;;;-128.00;-1.00;-1.00;99994;1283;1004498;-32
2023/12/18 08:35:59;;;;;;;4.40;2.00;;;;;;;-128.00;-1.00;-1.00;100054;1283;1005056;-32
2023/12/18 08:38:24;;;;;;;;;;;;;;;-128.00;-1.00;-1.00;100016;1283;1047331;-33
2023/12/18 08:40:50;;;;;;;3.40;1.80;;;;;;;-128.00;-1.00;-1.00;99945;1283;1003753;-31
2023/12/18 08:43:16;;;;;;;4.40;1.70;;;;;;;-128.00;-1.00;-1.00;100028;1283;1004753;-33
2023/12/18 08:45:42;;;;;;;;;;;;;;;-128.00;-1.00;-1.00;100078;1283;1004504;-31
2023/12/18 08:48:09;;;;;;;6.80;2.50;;;;;;;-128.00;-1.00;-1.00;99982;1287;1045934;-33
2023/12/18 08:50:34;;;;;;;6.50;2.20;;;;;;;-128.00;-1.00;-1.00;99985;1282;1004921;-33
2023/12/18 08:53:00;;;;;;;3.40;1.60;;;;;;;-128.00;-1.00;-1.00;100070;1283;1004649;-33
2023/12/18 08:55:26;;;;;;;5.30;1.90;;;;;;;-128.00;-1.00;-1.00;99997;1285;1061074;-31
2023/12/18 08:57:52;;;;;;;;;;;;;;;-128.00;-1.00;-1.00;100021;1284;1004562;-32
2023/12/18 09:00:18;;;;;;;6.60;2.30;;;;;;;-128.00;-1.00;-1.00;100029;1283;1004143;-32
2023/12/18 09:02:44;;;;;;;9.90;3.50;;;;;;;-128.00;-1.00;-1.00;100056;1283;1061907;-32
2023/12/18 09:05:10;;;;;;;5.00;2.10;;;;;;;-128.00;-1.00;-1.00;100079;1287;1004947;-32
2023/12/18 09:07:36;;;;;;;4.60;2.20;;;;;;;-128.00;-1.00;-1.00;99300;1284;1004766;-32
2023/12/18 09:10:02;;;;;;;3.60;2.00;;;;;;;-128.00;-1.00;-1.00;100070;1283;1045679;-33
2023/12/18 09:12:27;;;;;;;;;;;;;;;-128.00;-1.00;-1.00;100100;1285;1004660;-32
2023/12/18 09:14:54;;;;;;;3.70;2.30;;;;;;;-128.00;-1.00;-1.00;99994;1285;1004921;-30
2023/12/18 09:17:19;;;;;;;;;;;;;;;-128.00;-1.00;-1.00;99989;1285;1061503;-32
2023/12/18 09:19:46;;;;;;;3.40;2.10;;;;;;;-128.00;-1.00;-1.00;100000;1285;1004091;-31
2023/12/18 09:22:12;;;;;;;5.30;2.30;;;;;;;-128.00;-1.00;-1.00;100150;1285;1003760;-32
2023/12/18 09:24:38;;;;;;;4.00;2.10;;;;;;;-128.00;-1.00;-1.00;100075;1283;1003315;-31
2023/12/18 09:27:04;;;;;;;5.30;1.80;;;;;;;-128.00;-1.00;-1.00;100113;1283;1003390;-35
2023/12/18 09:29:30;;;;;;;;;;;;;;;-128.00;-1.00;-1.00;99995;1285;1059618;-32
2023/12/18 09:31:55;;;;;;;4.80;2.20;;;;;;;-128.00;-1.00;-1.00;100020;1285;1004353;-34
2023/12/18 09:34:21;;;;;;;3.80;1.90;;;;;;;-128.00;-1.00;-1.00;99925;1288;1004424;-32
2023/12/18 09:36:48;;;;;;;3.90;2.60;;;;;;;-128.00;-1.00;-1.00;100041;1283;1061291;-33
2023/12/18 09:39:14;;;;;;;4.50;2.20;;;;;;;-128.00;-1.00;-1.00;100046;1283;1004714;-32
2023/12/18 09:41:40;;;;;;;;;;;;;;;-128.00;-1.00;-1.00;99957;1284;1004876;-33
2023/12/18 09:44:06;;;;;;;7.80;3.40;;;;;;;-128.00;-1.00;-1.00;100082;1285;1004664;-33
2023/12/18 09:46:31;;;;;;;4.80;1.90;;;;;;;-128.00;-1.00;-1.00;99854;1288;1048751;-32
2023/12/18 09:48:57;;;;;;;4.40;2.00;;;;;;;-128.00;-1.00;-1.00;100075;1284;1005283;-31
2023/12/18 09:51:24;;;;;;;;;;;;;;;-128.00;-1.00;-1.00;100064;1285;1004435;-35
2023/12/18 09:53:54;;;;;;;12.20;3.00;;;;;;;-128.00;-1.00;-1.00;99962;1283;1014937;-33
2023/12/18 09:56:21;;;;;;;7.70;3.90;;;;;;;-128.00;-1.00;-1.00;100005;1285;1045603;-33
2023/12/18 09:58:47;;;;;;;11.60;3.10;;;;;;;-128.00;-1.00;-1.00;100043;1285;1004614;-34
2023/12/18 10:01:13;;;;;;;8.60;2.70;;;;;;;-128.00;-1.00;-1.00;99980;1283;1004894;-34
2023/12/18 10:03:39;;;;;;;11.00;3.30;;;;;;;-128.00;-1.00;-1.00;99896;1285;1005034;-34
2023/12/18 10:06:04;;;;;;;;;;;;;;;-128.00;-1.00;-1.00;99992;1285;1004335;-33
2023/12/18 10:08:30;;;;;;;9.50;2.90;;;;;;;-128.00;-1.00;-1.00;100018;1284;1046139;-33
2023/12/18 10:10:56;;;;;;;7.90;3.90;;;;;;;-128.00;-1.00;-1.00;100003;1287;1004712;-32
2023/12/18 10:13:24;;;;;;;6.00;3.20;;;;;;;-128.00;-1.00;-1.00;100035;1283;1004220;-32
2023/12/18 10:15:50;;;;;;;6.40;2.40;;;;;;;-128.00;-1.00;-1.00;99999;1285;1060626;-33
2023/12/18 10:18:17;;;;;;;20.60;7.50;;;;;;;-128.00;-1.00;-1.00;100013;1285;1004360;-35
2023/12/18 10:20:43;;;;;;;10.00;3.20;;;;;;;-128.00;-1.00;-1.00;100022;1288;1003521;-32
2023/12/18 10:23:08;;;;;;;15.90;6.00;;;;;;;-128.00;-1.00;-1.00;100036;1284;1004411;-32
2023/12/18 10:25:35;;;;;;;5.50;3.20;;;;;;;-128.00;-1.00;-1.00;99996;1283;1004174;-31
2023/12/18 10:28:01;;;;;;;7.50;2.70;;;;;;;-128.00;-1.00;-1.00;100077;1284;1004678;-33
2023/12/18 10:30:29;;;;;;;8.30;3.10;;;;;;;-128.00;-1.00;-1.00;99980;1284;1004744;-33
2023/12/18 10:32:56;;;;;;;17.60;4.70;;;;;;;-128.00;-1.00;-1.00;99669;1285;1046248;-33
2023/12/18 10:35:22;;;;;;;6.70;2.40;;;;;;;-128.00;-1.00;-1.00;100095;1284;1004267;-32
2023/12/18 10:37:54;;;;;;;;;;;;;;;-128.00;-1.00;-1.00;100125;1285;1003920;-32
2023/12/18 10:40:22;;;;;;;3.80;1.90;;;;;;;-128.00;-1.00;-1.00;100254;1285;1055401;-33
2023/12/18 10:43:02;;;;;;;12.30;4.70;;;;;;;-128.00;-1.00;-1.00;100139;1286;1003298;-32
2023/12/18 10:45:29;;;;;;;28.90;9.60;;;;;;;-128.00;-1.00;-1.00;100096;1283;1013992;-33
2023/12/18 10:47:54;;;;;;;12.90;3.50;;;;;;;-128.00;-1.00;-1.00;100093;1282;1004818;-35
2023/12/18 10:50:20;;;;;;;12.70;4.10;;;;;;;-128.00;-1.00;-1.00;100211;1285;1002667;-32
2023/12/18 10:52:46;;;;;;;7.90;3.80;;;;;;;-128.00;-1.00;-1.00;100016;1285;1056820;-32
2023/12/18 10:55:12;;;;;;;4.80;2.80;;;;;;;-128.00;-1.00;-1.00;99996;1285;1004242;-31
2023/12/18 10:57:38;;;;;;;9.60;3.10;;;;;;;-128.00;-1.00;-1.00;99953;1283;1004430;-31
2023/12/18 11:00:04;;;;;;;;;;;;;;;-128.00;-1.00;-1.00;100178;1286;1004651;-32
2023/12/18 11:02:29;;;;;;;9.20;3.50;;;;;;;-128.00;-1.00;-1.00;100030;1285;1060309;-31
2023/12/18 11:04:56;;;;;;;7.70;2.50;;;;;;;-128.00;-1.00;-1.00;98702;1284;2003684;-31
2023/12/18 11:07:21;;;;;;;7.10;2.80;;;;;;;-128.00;-1.00;-1.00;100155;1283;1013445;-33
2023/12/18 11:09:47;;;;;;;;;;;;;;;-128.00;-1.00;-1.00;100204;1283;1003350;-33
2023/12/18 11:12:14;;;;;;;4.80;2.20;;;;;;;-128.00;-1.00;-1.00;99446;1284;1002834;-31
2023/12/18 11:14:59;;;;;;;4.80;2.10;;;;;;;-128.00;-1.00;-1.00;100194;1283;1004392;-32
2023/12/18 11:17:48;;;;;;;11.30;4.90;;;;;;;-128.00;-1.00;-1.00;100185;1285;1055870;-43
2023/12/18 11:20:28;;;;;;;8.90;2.30;;;;;;;-128.00;-1.00;-1.00;100150;1285;1058051;-31
2023/12/18 11:22:56;;;;;;;5.50;2.40;;;;;;;-128.00;-1.00;-1.00;100160;1285;1013164;-31
2023/12/18 11:25:34;;;;;;;5.30;2.80;;;;;;;-128.00;-1.00;-1.00;100132;1288;1004524;-34
2023/12/18 11:28:05;;;;;;;7.50;2.50;;;;;;;-128.00;-1.00;-1.00;100157;1287;1048518;-31
2023/12/18 11:30:32;;;;;;;8.10;3.60;;;;;;;-128.00;-1.00;-1.00;100198;1283;1062912;-32
2023/12/18 11:32:58;;;;;;;9.20;3.20;;;;;;;-128.00;-1.00;-1.00;100247;1283;1003319;-32
2023/12/18 11:35:32;;;;;;;6.80;3.30;;;;;;;-128.00;-1.00;-1.00;100179;1284;1003154;-32
2023/12/18 11:38:10;;;;;;;4.50;2.50;;;;;;;-128.00;-1.00;-1.00;100165;1285;1012731;-32
2023/12/18 11:40:44;;;;;;;4.40;2.10;;;;;;;-128.00;-1.00;-1.00;100136;1288;1039404;-31
2023/12/18 11:43:11;;;;;;;5.60;3.00;;;;;;;-128.00;-1.00;-1.00;100224;1284;1046339;-35
2023/12/18 11:45:44;;;;;;;7.30;3.00;;;;;;;-128.00;-1.00;-1.00;100028;1285;1004062;-33
2023/12/18 11:48:16;;;;;;;4.00;1.90;;;;;;;-128.00;-1.00;-1.00;100109;1285;1056518;-34
2023/12/18 11:50:42;;;;;;;5.00;1.90;;;;;;;-128.00;-1.00;-1.00;99432;1283;1059221;-31
2023/12/18 11:53:20;;;;;;;5.60;2.70;;;;;;;-128.00;-1.00;-1.00;100162;1283;1003321;-33
2023/12/18 11:55:47;;;;;;;4.80;2.00;;;;;;;-128.00;-1.00;-1.00;100139;1285;1046143;-31